sensor_id;sensor_type;location;lat;lon;timestamp;P1;durP1;ratioP1;P2;durP2;ratioP2
46505;SDS011;32220;49.808;9.968;2022-08-30T00:01:01;1.77;;;1.50;;
46505;SDS011;32220;49.808;9.968;2022-08-30T00:03:28;1.77;;;1.40;;
46505;SDS011;32220;49.808;9.968;2022-08-30T00:05:57;2.30;;;1.27;;
46505;SDS011;32220;49.808;9.968;2022-08-30T00:08:25;5.13;;;1.50;;
46505;SDS011;32220;49.808;9.968;2022-08-30T00:10:52;2.53;;;1.60;;
46505;SDS011;32220;49.808;9.968;2022-08-30T00:13:22;2.00;;;1.70;;
46505;SDS011;32220;49.808;9.968;2022-08-30T00:15:50;2.40;;;1.27;;
46505;SDS011;32220;49.808;9.968;2022-08-30T00:18:18;2.30;;;1.60;;
46505;SDS011;32220;49.808;9.968;2022-08-30T00:20:47;3.07;;;1.60;;
46505;SDS011;32220;49.808;9.968;2022-08-30T00:23:16;1.77;;;1.40;;
46505;SDS011;32220;49.808;9.968;2022-08-30T00:25:44;2.13;;;1.80;;
46505;SDS011;32220;49.808;9.968;2022-08-30T00:28:12;4.17;;;1.70;;
46505;SDS011;32220;49.808;9.968;2022-08-30T00:30:43;2.47;;;1.77;;
46505;SDS011;32220;49.808;9.968;2022-08-30T00:33:12;2.43;;;1.43;;
46505;SDS011;32220;49.808;9.968;2022-08-30T00:35:40;1.57;;;1.30;;
46505;SDS011;32220;49.808;9.968;2022-08-30T00:38:09;3.20;;;1.70;;
46505;SDS011;32220;49.808;9.968;2022-08-30T00:40:39;2.50;;;1.67;;
46505;SDS011;32220;49.808;9.968;2022-08-30T00:43:11;2.87;;;1.60;;
46505;SDS011;32220;49.808;9.968;2022-08-30T00:45:42;5.93;;;1.90;;
46505;SDS011;32220;49.808;9.968;2022-08-30T00:48:10;3.03;;;1.80;;
46505;SDS011;32220;49.808;9.968;2022-08-30T00:50:39;2.60;;;1.47;;
46505;SDS011;32220;49.808;9.968;2022-08-30T00:53:12;1.67;;;1.47;;
46505;SDS011;32220;49.808;9.968;2022-08-30T00:55:42;3.53;;;1.30;;
46505;SDS011;32220;49.808;9.968;2022-08-30T00:58:12;4.23;;;1.50;;
46505;SDS011;32220;49.808;9.968;2022-08-30T01:00:48;4.10;;;1.90;;
46505;SDS011;32220;49.808;9.968;2022-08-30T01:03:18;2.47;;;1.60;;
46505;SDS011;32220;49.808;9.968;2022-08-30T01:05:46;1.37;;;1.20;;
46505;SDS011;32220;49.808;9.968;2022-08-30T01:08:16;1.77;;;1.47;;
46505;SDS011;32220;49.808;9.968;2022-08-30T01:10:45;3.70;;;1.63;;
46505;SDS011;32220;49.808;9.968;2022-08-30T01:13:13;2.40;;;1.63;;
46505;SDS011;32220;49.808;9.968;2022-08-30T01:15:42;2.80;;;1.50;;
46505;SDS011;32220;49.808;9.968;2022-08-30T01:18:12;2.87;;;1.70;;
46505;SDS011;32220;49.808;9.968;2022-08-30T01:20:44;2.07;;;1.50;;
46505;SDS011;32220;49.808;9.968;2022-08-30T01:23:17;1.80;;;1.13;;
46505;SDS011;32220;49.808;9.968;2022-08-30T01:25:48;1.67;;;1.57;;
46505;SDS011;32220;49.808;9.968;2022-08-30T01:28:19;2.47;;;1.30;;
46505;SDS011;32220;49.808;9.968;2022-08-30T01:30:49;4.07;;;1.63;;
46505;SDS011;32220;49.808;9.968;2022-08-30T01:33:18;2.80;;;1.30;;
46505;SDS011;32220;49.808;9.968;2022-08-30T01:35:47;1.70;;;1.50;;
46505;SDS011;32220;49.808;9.968;2022-08-30T01:38:21;1.40;;;1.30;;
46505;SDS011;32220;49.808;9.968;2022-08-30T01:40:55;1.80;;;1.30;;
46505;SDS011;32220;49.808;9.968;2022-08-30T01:43:24;2.50;;;1.53;;
46505;SDS011;32220;49.808;9.968;2022-08-30T01:45:52;1.47;;;1.20;;
46505;SDS011;32220;49.808;9.968;2022-08-30T01:48:20;2.20;;;1.40;;
46505;SDS011;32220;49.808;9.968;2022-08-30T01:50:48;1.93;;;1.23;;
46505;SDS011;32220;49.808;9.968;2022-08-30T01:53:16;2.23;;;1.60;;
46505;SDS011;32220;49.808;9.968;2022-08-30T01:55:45;1.77;;;1.53;;
46505;SDS011;32220;49.808;9.968;2022-08-30T01:58:13;2.50;;;1.53;;
46505;SDS011;32220;49.808;9.968;2022-08-30T02:00:41;2.17;;;1.57;;
46505;SDS011;32220;49.808;9.968;2022-08-30T02:03:08;2.30;;;1.50;;
46505;SDS011;32220;49.808;9.968;2022-08-30T02:05:36;2.30;;;1.70;;
46505;SDS011;32220;49.808;9.968;2022-08-30T02:08:04;2.50;;;1.50;;
46505;SDS011;32220;49.808;9.968;2022-08-30T02:10:31;1.80;;;1.27;;
46505;SDS011;32220;49.808;9.968;2022-08-30T02:13:01;2.47;;;1.43;;
46505;SDS011;32220;49.808;9.968;2022-08-30T02:15:29;3.30;;;1.50;;
46505;SDS011;32220;49.808;9.968;2022-08-30T02:17:56;1.97;;;1.40;;
46505;SDS011;32220;49.808;9.968;2022-08-30T02:20:24;2.63;;;1.60;;
46505;SDS011;32220;49.808;9.968;2022-08-30T02:22:52;1.93;;;1.63;;
46505;SDS011;32220;49.808;9.968;2022-08-30T02:25:19;2.33;;;1.60;;
46505;SDS011;32220;49.808;9.968;2022-08-30T02:27:47;2.37;;;1.43;;
46505;SDS011;32220;49.808;9.968;2022-08-30T02:30:16;2.80;;;1.57;;
46505;SDS011;32220;49.808;9.968;2022-08-30T02:32:44;1.80;;;1.53;;
46505;SDS011;32220;49.808;9.968;2022-08-30T02:35:11;1.97;;;1.40;;
46505;SDS011;32220;49.808;9.968;2022-08-30T02:37:39;3.33;;;1.40;;
46505;SDS011;32220;49.808;9.968;2022-08-30T02:40:07;2.87;;;1.90;;
46505;SDS011;32220;49.808;9.968;2022-08-30T02:42:36;1.63;;;1.47;;
46505;SDS011;32220;49.808;9.968;2022-08-30T02:45:04;2.33;;;1.87;;
46505;SDS011;32220;49.808;9.968;2022-08-30T02:47:34;2.53;;;1.37;;
46505;SDS011;32220;49.808;9.968;2022-08-30T02:50:02;2.80;;;1.40;;
46505;SDS011;32220;49.808;9.968;2022-08-30T02:52:31;2.63;;;1.80;;
46505;SDS011;32220;49.808;9.968;2022-08-30T02:54:59;1.83;;;1.20;;
46505;SDS011;32220;49.808;9.968;2022-08-30T02:57:26;1.70;;;1.30;;
46505;SDS011;32220;49.808;9.968;2022-08-30T02:59:54;2.77;;;1.57;;
46505;SDS011;32220;49.808;9.968;2022-08-30T03:02:23;1.53;;;1.20;;
46505;SDS011;32220;49.808;9.968;2022-08-30T03:04:52;2.73;;;1.80;;
46505;SDS011;32220;49.808;9.968;2022-08-30T03:07:20;3.43;;;1.67;;
46505;SDS011;32220;49.808;9.968;2022-08-30T03:09:48;2.10;;;1.43;;
46505;SDS011;32220;49.808;9.968;2022-08-30T03:12:16;2.07;;;1.53;;
46505;SDS011;32220;49.808;9.968;2022-08-30T03:14:43;1.77;;;1.50;;
46505;SDS011;32220;49.808;9.968;2022-08-30T03:17:11;3.53;;;1.87;;
46505;SDS011;32220;49.808;9.968;2022-08-30T03:19:39;1.73;;;1.50;;
46505;SDS011;32220;49.808;9.968;2022-08-30T03:22:08;1.93;;;1.47;;
46505;SDS011;32220;49.808;9.968;2022-08-30T03:24:36;3.63;;;2.00;;
46505;SDS011;32220;49.808;9.968;2022-08-30T03:27:04;2.07;;;1.57;;
46505;SDS011;32220;49.808;9.968;2022-08-30T03:29:32;1.83;;;1.30;;
46505;SDS011;32220;49.808;9.968;2022-08-30T03:31:59;2.50;;;1.87;;
46505;SDS011;32220;49.808;9.968;2022-08-30T03:34:27;3.07;;;2.00;;
46505;SDS011;32220;49.808;9.968;2022-08-30T03:36:55;3.73;;;1.77;;
46505;SDS011;32220;49.808;9.968;2022-08-30T03:39:27;2.97;;;1.90;;
46505;SDS011;32220;49.808;9.968;2022-08-30T03:41:55;2.30;;;1.30;;
46505;SDS011;32220;49.808;9.968;2022-08-30T03:44:22;3.50;;;1.77;;
46505;SDS011;32220;49.808;9.968;2022-08-30T03:46:50;1.60;;;1.40;;
46505;SDS011;32220;49.808;9.968;2022-08-30T03:49:19;3.30;;;1.83;;
46505;SDS011;32220;49.808;9.968;2022-08-30T03:51:47;2.03;;;1.43;;
46505;SDS011;32220;49.808;9.968;2022-08-30T03:54:15;2.10;;;1.60;;
46505;SDS011;32220;49.808;9.968;2022-08-30T03:56:45;1.67;;;1.57;;
46505;SDS011;32220;49.808;9.968;2022-08-30T03:59:13;2.07;;;1.33;;
46505;SDS011;32220;49.808;9.968;2022-08-30T04:01:41;3.23;;;1.63;;
46505;SDS011;32220;49.808;9.968;2022-08-30T04:04:10;2.00;;;1.73;;
46505;SDS011;32220;49.808;9.968;2022-08-30T04:06:38;2.43;;;1.50;;
46505;SDS011;32220;49.808;9.968;2022-08-30T04:09:06;2.10;;;1.53;;
46505;SDS011;32220;49.808;9.968;2022-08-30T04:11:34;1.60;;;1.20;;
46505;SDS011;32220;49.808;9.968;2022-08-30T04:14:04;2.40;;;1.60;;
46505;SDS011;32220;49.808;9.968;2022-08-30T04:16:31;2.37;;;1.70;;
46505;SDS011;32220;49.808;9.968;2022-08-30T04:18:59;1.60;;;1.30;;
46505;SDS011;32220;49.808;9.968;2022-08-30T04:21:27;2.23;;;1.27;;
46505;SDS011;32220;49.808;9.968;2022-08-30T04:23:55;2.00;;;1.73;;
46505;SDS011;32220;49.808;9.968;2022-08-30T04:26:23;2.73;;;1.40;;
46505;SDS011;32220;49.808;9.968;2022-08-30T04:28:52;2.50;;;2.10;;
46505;SDS011;32220;49.808;9.968;2022-08-30T04:31:21;1.77;;;1.50;;
46505;SDS011;32220;49.808;9.968;2022-08-30T04:33:49;1.70;;;1.33;;
46505;SDS011;32220;49.808;9.968;2022-08-30T04:36:17;2.00;;;1.40;;
46505;SDS011;32220;49.808;9.968;2022-08-30T04:38:45;2.53;;;1.60;;
46505;SDS011;32220;49.808;9.968;2022-08-30T04:41:14;2.53;;;1.60;;
46505;SDS011;32220;49.808;9.968;2022-08-30T04:43:44;3.17;;;1.40;;
46505;SDS011;32220;49.808;9.968;2022-08-30T04:46:14;2.80;;;1.87;;
46505;SDS011;32220;49.808;9.968;2022-08-30T04:48:43;2.13;;;1.50;;
46505;SDS011;32220;49.808;9.968;2022-08-30T04:51:11;1.70;;;1.23;;
46505;SDS011;32220;49.808;9.968;2022-08-30T04:53:42;2.77;;;1.77;;
46505;SDS011;32220;49.808;9.968;2022-08-30T04:56:11;5.00;;;1.97;;
46505;SDS011;32220;49.808;9.968;2022-08-30T04:58:41;2.57;;;1.70;;
46505;SDS011;32220;49.808;9.968;2022-08-30T05:01:11;2.63;;;1.63;;
46505;SDS011;32220;49.808;9.968;2022-08-30T05:03:39;2.10;;;1.50;;
46505;SDS011;32220;49.808;9.968;2022-08-30T05:06:11;4.70;;;1.90;;
46505;SDS011;32220;49.808;9.968;2022-08-30T05:08:39;2.07;;;1.77;;
46505;SDS011;32220;49.808;9.968;2022-08-30T05:11:07;3.50;;;1.70;;
46505;SDS011;32220;49.808;9.968;2022-08-30T05:13:35;2.87;;;1.80;;
46505;SDS011;32220;49.808;9.968;2022-08-30T05:16:04;4.57;;;2.00;;
46505;SDS011;32220;49.808;9.968;2022-08-30T05:18:34;3.50;;;1.87;;
46505;SDS011;32220;49.808;9.968;2022-08-30T05:21:02;2.17;;;1.53;;
46505;SDS011;32220;49.808;9.968;2022-08-30T05:23:33;2.93;;;1.83;;
46505;SDS011;32220;49.808;9.968;2022-08-30T05:26:03;3.37;;;1.80;;
46505;SDS011;32220;49.808;9.968;2022-08-30T05:28:32;2.40;;;1.63;;
46505;SDS011;32220;49.808;9.968;2022-08-30T05:31:00;1.83;;;1.43;;
46505;SDS011;32220;49.808;9.968;2022-08-30T05:33:29;1.90;;;1.53;;
46505;SDS011;32220;49.808;9.968;2022-08-30T05:35:56;3.00;;;2.00;;
46505;SDS011;32220;49.808;9.968;2022-08-30T05:38:24;2.67;;;2.00;;
46505;SDS011;32220;49.808;9.968;2022-08-30T05:40:53;3.07;;;2.00;;
46505;SDS011;32220;49.808;9.968;2022-08-30T05:43:21;2.40;;;1.87;;
46505;SDS011;32220;49.808;9.968;2022-08-30T05:45:56;4.10;;;2.30;;
46505;SDS011;32220;49.808;9.968;2022-08-30T05:48:25;2.40;;;1.70;;
46505;SDS011;32220;49.808;9.968;2022-08-30T05:51:00;3.67;;;2.00;;
46505;SDS011;32220;49.808;9.968;2022-08-30T05:53:29;2.67;;;1.83;;
46505;SDS011;32220;49.808;9.968;2022-08-30T05:55:59;2.50;;;2.00;;
46505;SDS011;32220;49.808;9.968;2022-08-30T05:58:27;2.17;;;1.70;;
46505;SDS011;32220;49.808;9.968;2022-08-30T06:00:55;2.10;;;1.90;;
46505;SDS011;32220;49.808;9.968;2022-08-30T06:03:23;4.17;;;2.33;;
46505;SDS011;32220;49.808;9.968;2022-08-30T06:05:52;2.00;;;1.70;;
46505;SDS011;32220;49.808;9.968;2022-08-30T06:08:20;3.43;;;1.83;;
46505;SDS011;32220;49.808;9.968;2022-08-30T06:10:48;3.33;;;2.13;;
46505;SDS011;32220;49.808;9.968;2022-08-30T06:13:18;2.93;;;1.80;;
46505;SDS011;32220;49.808;9.968;2022-08-30T06:15:47;2.87;;;1.83;;
46505;SDS011;32220;49.808;9.968;2022-08-30T06:18:16;3.23;;;2.27;;
46505;SDS011;32220;49.808;9.968;2022-08-30T06:20:43;3.50;;;2.30;;
46505;SDS011;32220;49.808;9.968;2022-08-30T06:23:13;4.27;;;1.90;;
46505;SDS011;32220;49.808;9.968;2022-08-30T06:25:42;2.77;;;1.77;;
46505;SDS011;32220;49.808;9.968;2022-08-30T06:28:10;3.73;;;1.87;;
46505;SDS011;32220;49.808;9.968;2022-08-30T06:30:40;2.77;;;1.80;;
46505;SDS011;32220;49.808;9.968;2022-08-30T06:33:09;3.03;;;1.90;;
46505;SDS011;32220;49.808;9.968;2022-08-30T06:35:37;2.63;;;1.63;;
46505;SDS011;32220;49.808;9.968;2022-08-30T06:38:05;2.20;;;1.80;;
46505;SDS011;32220;49.808;9.968;2022-08-30T06:40:32;1.97;;;1.53;;
46505;SDS011;32220;49.808;9.968;2022-08-30T06:43:02;2.83;;;1.63;;
46505;SDS011;32220;49.808;9.968;2022-08-30T06:45:31;1.90;;;1.40;;
46505;SDS011;32220;49.808;9.968;2022-08-30T06:48:03;2.13;;;1.40;;
46505;SDS011;32220;49.808;9.968;2022-08-30T06:50:31;2.10;;;1.90;;
46505;SDS011;32220;49.808;9.968;2022-08-30T06:52:59;1.90;;;1.57;;
46505;SDS011;32220;49.808;9.968;2022-08-30T06:55:30;4.50;;;2.00;;
46505;SDS011;32220;49.808;9.968;2022-08-30T06:57:58;4.23;;;2.30;;
46505;SDS011;32220;49.808;9.968;2022-08-30T07:00:26;4.27;;;2.07;;
46505;SDS011;32220;49.808;9.968;2022-08-30T07:02:54;3.57;;;2.00;;
46505;SDS011;32220;49.808;9.968;2022-08-30T07:05:24;3.10;;;1.97;;
46505;SDS011;32220;49.808;9.968;2022-08-30T07:07:51;3.67;;;1.87;;
46505;SDS011;32220;49.808;9.968;2022-08-30T07:10:19;2.70;;;1.83;;
46505;SDS011;32220;49.808;9.968;2022-08-30T07:12:48;2.83;;;1.70;;
46505;SDS011;32220;49.808;9.968;2022-08-30T07:15:15;4.80;;;1.90;;
46505;SDS011;32220;49.808;9.968;2022-08-30T07:17:47;2.90;;;2.10;;
46505;SDS011;32220;49.808;9.968;2022-08-30T07:20:36;3.83;;;2.03;;
46505;SDS011;32220;49.808;9.968;2022-08-30T07:23:04;3.47;;;1.87;;
46505;SDS011;32220;49.808;9.968;2022-08-30T07:25:32;3.37;;;1.77;;
46505;SDS011;32220;49.808;9.968;2022-08-30T07:27:59;5.03;;;2.03;;
46505;SDS011;32220;49.808;9.968;2022-08-30T07:30:27;4.50;;;2.37;;
46505;SDS011;32220;49.808;9.968;2022-08-30T07:32:56;3.00;;;1.90;;
46505;SDS011;32220;49.808;9.968;2022-08-30T07:35:24;3.43;;;1.83;;
46505;SDS011;32220;49.808;9.968;2022-08-30T07:37:53;5.00;;;2.50;;
46505;SDS011;32220;49.808;9.968;2022-08-30T07:40:21;3.63;;;1.97;;
46505;SDS011;32220;49.808;9.968;2022-08-30T07:42:49;3.40;;;2.23;;
46505;SDS011;32220;49.808;9.968;2022-08-30T07:45:17;3.27;;;2.40;;
46505;SDS011;32220;49.808;9.968;2022-08-30T07:47:45;3.03;;;2.23;;
46505;SDS011;32220;49.808;9.968;2022-08-30T07:50:13;3.50;;;2.03;;
46505;SDS011;32220;49.808;9.968;2022-08-30T07:52:41;5.73;;;1.73;;
46505;SDS011;32220;49.808;9.968;2022-08-30T07:55:10;3.23;;;2.03;;
46505;SDS011;32220;49.808;9.968;2022-08-30T07:57:38;3.70;;;2.23;;
46505;SDS011;32220;49.808;9.968;2022-08-30T08:00:06;2.83;;;2.00;;
46505;SDS011;32220;49.808;9.968;2022-08-30T08:02:38;4.17;;;2.30;;
46505;SDS011;32220;49.808;9.968;2022-08-30T08:05:07;4.30;;;2.50;;
46505;SDS011;32220;49.808;9.968;2022-08-30T08:07:36;2.47;;;2.10;;
46505;SDS011;32220;49.808;9.968;2022-08-30T08:10:04;3.47;;;2.57;;
46505;SDS011;32220;49.808;9.968;2022-08-30T08:12:34;4.47;;;2.20;;
46505;SDS011;32220;49.808;9.968;2022-08-30T08:15:03;3.77;;;2.83;;
46505;SDS011;32220;49.808;9.968;2022-08-30T08:17:31;5.47;;;2.80;;
46505;SDS011;32220;49.808;9.968;2022-08-30T08:19:59;4.33;;;2.60;;
46505;SDS011;32220;49.808;9.968;2022-08-30T08:22:27;6.50;;;3.10;;
46505;SDS011;32220;49.808;9.968;2022-08-30T08:24:55;3.47;;;2.70;;
46505;SDS011;32220;49.808;9.968;2022-08-30T08:27:22;4.27;;;2.40;;
46505;SDS011;32220;49.808;9.968;2022-08-30T08:29:52;3.80;;;2.17;;
46505;SDS011;32220;49.808;9.968;2022-08-30T08:32:20;3.33;;;2.50;;
46505;SDS011;32220;49.808;9.968;2022-08-30T08:34:48;5.93;;;3.30;;
46505;SDS011;32220;49.808;9.968;2022-08-30T08:37:15;3.22;;;2.47;;
46505;SDS011;32220;49.808;9.968;2022-08-30T08:39:43;3.72;;;2.85;;
46505;SDS011;32220;49.808;9.968;2022-08-30T08:42:15;2.38;;;2.00;;
46505;SDS011;32220;49.808;9.968;2022-08-30T08:44:54;3.20;;;2.53;;
46505;SDS011;32220;49.808;9.968;2022-08-30T08:47:28;5.20;;;2.55;;
46505;SDS011;32220;49.808;9.968;2022-08-30T08:50:06;6.60;;;3.00;;
46505;SDS011;32220;49.808;9.968;2022-08-30T08:52:41;3.13;;;2.40;;
46505;SDS011;32220;49.808;9.968;2022-08-30T08:55:32;2.90;;;2.23;;
46505;SDS011;32220;49.808;9.968;2022-08-30T08:58:00;2.40;;;2.20;;
46505;SDS011;32220;49.808;9.968;2022-08-30T09:00:30;4.22;;;2.65;;
46505;SDS011;32220;49.808;9.968;2022-08-30T09:02:59;3.40;;;2.47;;
46505;SDS011;32220;49.808;9.968;2022-08-30T09:05:34;3.83;;;2.23;;
46505;SDS011;32220;49.808;9.968;2022-08-30T09:08:05;2.87;;;2.43;;
46505;SDS011;32220;49.808;9.968;2022-08-30T09:10:35;4.03;;;2.50;;
46505;SDS011;32220;49.808;9.968;2022-08-30T09:13:05;4.97;;;3.00;;
46505;SDS011;32220;49.808;9.968;2022-08-30T09:15:34;6.60;;;2.80;;
46505;SDS011;32220;49.808;9.968;2022-08-30T09:18:02;3.73;;;2.33;;
46505;SDS011;32220;49.808;9.968;2022-08-30T09:20:32;3.73;;;2.73;;
46505;SDS011;32220;49.808;9.968;2022-08-30T09:23:10;2.73;;;2.27;;
46505;SDS011;32220;49.808;9.968;2022-08-30T09:25:48;4.83;;;2.80;;
46505;SDS011;32220;49.808;9.968;2022-08-30T09:28:20;7.00;;;3.33;;
46505;SDS011;32220;49.808;9.968;2022-08-30T09:30:59;2.60;;;2.37;;
46505;SDS011;32220;49.808;9.968;2022-08-30T09:33:30;4.43;;;2.73;;
46505;SDS011;32220;49.808;9.968;2022-08-30T09:36:08;4.00;;;3.20;;
46505;SDS011;32220;49.808;9.968;2022-08-30T09:38:40;4.17;;;2.63;;
46505;SDS011;32220;49.808;9.968;2022-08-30T09:41:28;4.60;;;2.50;;
46505;SDS011;32220;49.808;9.968;2022-08-30T09:44:04;3.97;;;2.57;;
46505;SDS011;32220;49.808;9.968;2022-08-30T09:46:38;3.67;;;2.77;;
46505;SDS011;32220;49.808;9.968;2022-08-30T09:49:20;3.03;;;2.20;;
46505;SDS011;32220;49.808;9.968;2022-08-30T09:51:58;6.87;;;2.53;;
46505;SDS011;32220;49.808;9.968;2022-08-30T09:54:37;3.50;;;2.50;;
46505;SDS011;32220;49.808;9.968;2022-08-30T09:57:16;4.80;;;2.50;;
46505;SDS011;32220;49.808;9.968;2022-08-30T09:59:56;3.80;;;2.67;;
46505;SDS011;32220;49.808;9.968;2022-08-30T10:02:42;4.47;;;2.40;;
46505;SDS011;32220;49.808;9.968;2022-08-30T10:05:26;4.23;;;2.73;;
46505;SDS011;32220;49.808;9.968;2022-08-30T10:08:04;2.80;;;2.60;;
46505;SDS011;32220;49.808;9.968;2022-08-30T10:10:40;4.00;;;3.23;;
46505;SDS011;32220;49.808;9.968;2022-08-30T10:13:23;4.40;;;2.37;;
46505;SDS011;32220;49.808;9.968;2022-08-30T10:16:10;2.43;;;2.23;;
46505;SDS011;32220;49.808;9.968;2022-08-30T10:18:50;4.03;;;2.57;;
46505;SDS011;32220;49.808;9.968;2022-08-30T10:21:25;3.30;;;2.20;;
46505;SDS011;32220;49.808;9.968;2022-08-30T10:24:00;2.60;;;2.03;;
46505;SDS011;32220;49.808;9.968;2022-08-30T10:26:32;5.07;;;2.33;;
46505;SDS011;32220;49.808;9.968;2022-08-30T10:29:05;3.03;;;2.27;;
46505;SDS011;32220;49.808;9.968;2022-08-30T10:31:38;2.60;;;2.03;;
46505;SDS011;32220;49.808;9.968;2022-08-30T10:34:12;4.27;;;2.20;;
46505;SDS011;32220;49.808;9.968;2022-08-30T10:36:45;3.73;;;2.30;;
46505;SDS011;32220;49.808;9.968;2022-08-30T10:39:16;3.73;;;2.80;;
46505;SDS011;32220;49.808;9.968;2022-08-30T10:41:48;2.10;;;1.90;;
46505;SDS011;32220;49.808;9.968;2022-08-30T10:44:21;2.73;;;2.20;;
46505;SDS011;32220;49.808;9.968;2022-08-30T10:46:57;2.60;;;2.03;;
46505;SDS011;32220;49.808;9.968;2022-08-30T10:49:33;3.60;;;2.20;;
46505;SDS011;32220;49.808;9.968;2022-08-30T10:52:07;1.88;;;1.67;;
46505;SDS011;32220;49.808;9.968;2022-08-30T10:54:46;2.28;;;1.88;;
46505;SDS011;32220;49.808;9.968;2022-08-30T10:57:16;2.58;;;2.28;;
46505;SDS011;32220;49.808;9.968;2022-08-30T10:59:45;2.45;;;2.25;;
46505;SDS011;32220;49.808;9.968;2022-08-30T11:02:19;6.60;;;2.47;;
46505;SDS011;32220;49.808;9.968;2022-08-30T11:05:06;4.05;;;2.60;;
46505;SDS011;32220;49.808;9.968;2022-08-30T11:07:51;2.22;;;2.03;;
46505;SDS011;32220;49.808;9.968;2022-08-30T11:10:31;2.63;;;2.40;;
46505;SDS011;32220;49.808;9.968;2022-08-30T11:13:10;3.30;;;2.20;;
46505;SDS011;32220;49.808;9.968;2022-08-30T11:15:52;2.20;;;2.00;;
46505;SDS011;32220;49.808;9.968;2022-08-30T11:18:24;2.28;;;2.08;;
46505;SDS011;32220;49.808;9.968;2022-08-30T11:23:58;3.80;;;2.33;;
46505;SDS011;32220;49.808;9.968;2022-08-30T11:29:37;5.55;;;2.20;;
46505;SDS011;32220;49.808;9.968;2022-08-30T11:32:21;3.67;;;2.67;;
46505;SDS011;32220;49.808;9.968;2022-08-30T11:35:37;3.15;;;2.88;;
46505;SDS011;32220;49.808;9.968;2022-08-30T11:38:15;2.33;;;2.08;;
46505;SDS011;32220;49.808;9.968;2022-08-30T11:40:49;3.22;;;2.30;;
46505;SDS011;32220;49.808;9.968;2022-08-30T11:46:35;3.60;;;2.03;;
46505;SDS011;32220;49.808;9.968;2022-08-30T11:52:19;2.55;;;2.35;;
46505;SDS011;32220;49.808;9.968;2022-08-30T11:54:59;2.10;;;1.90;;
46505;SDS011;32220;49.808;9.968;2022-08-30T11:57:52;2.40;;;2.20;;
46505;SDS011;32220;49.808;9.968;2022-08-30T12:00:29;3.47;;;2.60;;
46505;SDS011;32220;49.808;9.968;2022-08-30T12:03:00;2.45;;;2.25;;
46505;SDS011;32220;49.808;9.968;2022-08-30T12:08:48;2.67;;;2.47;;
46505;SDS011;32220;49.808;9.968;2022-08-30T12:14:35;2.50;;;1.88;;
46505;SDS011;32220;49.808;9.968;2022-08-30T12:17:24;2.33;;;1.85;;
46505;SDS011;32220;49.808;9.968;2022-08-30T12:20:19;2.30;;;2.10;;
46505;SDS011;32220;49.808;9.968;2022-08-30T12:22:50;2.30;;;2.10;;
46505;SDS011;32220;49.808;9.968;2022-08-30T12:25:25;2.72;;;2.10;;
46505;SDS011;32220;49.808;9.968;2022-08-30T12:28:08;2.30;;;2.10;;
46505;SDS011;32220;49.808;9.968;2022-08-30T12:30:39;2.45;;;2.08;;
46505;SDS011;32220;49.808;9.968;2022-08-30T12:33:08;2.40;;;2.20;;
46505;SDS011;32220;49.808;9.968;2022-08-30T12:35:40;2.53;;;2.20;;
46505;SDS011;32220;49.808;9.968;2022-08-30T12:38:14;2.42;;;2.00;;
46505;SDS011;32220;49.808;9.968;2022-08-30T12:40:50;3.95;;;2.15;;
46505;SDS011;32220;49.808;9.968;2022-08-30T12:43:24;2.20;;;2.00;;
46505;SDS011;32220;49.808;9.968;2022-08-30T12:45:57;2.20;;;2.00;;
46505;SDS011;32220;49.808;9.968;2022-08-30T12:48:32;2.65;;;2.05;;
46505;SDS011;32220;49.808;9.968;2022-08-30T12:51:01;2.28;;;2.10;;
46505;SDS011;32220;49.808;9.968;2022-08-30T12:53:33;2.03;;;1.90;;
46505;SDS011;32220;49.808;9.968;2022-08-30T12:56:04;2.22;;;2.03;;
46505;SDS011;32220;49.808;9.968;2022-08-30T12:58:36;3.10;;;1.80;;
46505;SDS011;32220;49.808;9.968;2022-08-30T13:01:18;2.20;;;2.10;;
46505;SDS011;32220;49.808;9.968;2022-08-30T13:03:53;2.00;;;1.90;;
46505;SDS011;32220;49.808;9.968;2022-08-30T13:06:36;2.38;;;2.17;;
46505;SDS011;32220;49.808;9.968;2022-08-30T13:09:20;2.40;;;2.20;;
46505;SDS011;32220;49.808;9.968;2022-08-30T13:11:52;2.17;;;1.88;;
46505;SDS011;32220;49.808;9.968;2022-08-30T13:14:31;1.98;;;1.73;;
46505;SDS011;32220;49.808;9.968;2022-08-30T13:17:20;2.55;;;2.05;;
46505;SDS011;32220;49.808;9.968;2022-08-30T13:20:00;2.30;;;2.10;;
46505;SDS011;32220;49.808;9.968;2022-08-30T13:22:31;2.92;;;1.90;;
46505;SDS011;32220;49.808;9.968;2022-08-30T13:25:02;2.25;;;2.05;;
46505;SDS011;32220;49.808;9.968;2022-08-30T13:27:33;3.83;;;1.90;;
46505;SDS011;32220;49.808;9.968;2022-08-30T13:30:06;3.72;;;2.30;;
46505;SDS011;32220;49.808;9.968;2022-08-30T13:32:38;2.20;;;2.10;;
46505;SDS011;32220;49.808;9.968;2022-08-30T13:35:10;2.88;;;2.22;;
46505;SDS011;32220;49.808;9.968;2022-08-30T13:37:41;2.75;;;1.60;;
46505;SDS011;32220;49.808;9.968;2022-08-30T13:40:11;2.22;;;2.03;;
46505;SDS011;32220;49.808;9.968;2022-08-30T13:42:40;2.80;;;1.70;;
46505;SDS011;32220;49.808;9.968;2022-08-30T13:45:09;2.35;;;1.80;;
46505;SDS011;32220;49.808;9.968;2022-08-30T13:47:40;4.22;;;2.13;;
46505;SDS011;32220;49.808;9.968;2022-08-30T13:50:08;1.95;;;1.75;;
46505;SDS011;32220;49.808;9.968;2022-08-30T13:52:36;2.10;;;1.77;;
46505;SDS011;32220;49.808;9.968;2022-08-30T13:55:05;2.10;;;2.00;;
46505;SDS011;32220;49.808;9.968;2022-08-30T13:57:39;2.28;;;1.88;;
46505;SDS011;32220;49.808;9.968;2022-08-30T14:00:09;3.13;;;2.10;;
46505;SDS011;32220;49.808;9.968;2022-08-30T14:02:46;2.20;;;2.00;;
46505;SDS011;32220;49.808;9.968;2022-08-30T14:05:15;3.80;;;2.22;;
46505;SDS011;32220;49.808;9.968;2022-08-30T14:07:43;1.98;;;1.88;;
46505;SDS011;32220;49.808;9.968;2022-08-30T14:10:11;2.85;;;2.10;;
46505;SDS011;32220;49.808;9.968;2022-08-30T14:12:40;2.63;;;2.35;;
46505;SDS011;32220;49.808;9.968;2022-08-30T14:15:08;3.30;;;2.38;;
46505;SDS011;32220;49.808;9.968;2022-08-30T14:17:36;2.40;;;2.20;;
46505;SDS011;32220;49.808;9.968;2022-08-30T14:20:06;2.35;;;2.20;;
46505;SDS011;32220;49.808;9.968;2022-08-30T14:22:35;2.60;;;2.15;;
46505;SDS011;32220;49.808;9.968;2022-08-30T14:25:03;2.30;;;2.13;;
46505;SDS011;32220;49.808;9.968;2022-08-30T14:27:31;2.40;;;2.20;;
46505;SDS011;32220;49.808;9.968;2022-08-30T14:29:59;2.63;;;2.42;;
46505;SDS011;32220;49.808;9.968;2022-08-30T14:32:27;3.28;;;2.50;;
46505;SDS011;32220;49.808;9.968;2022-08-30T14:34:55;2.45;;;2.25;;
46505;SDS011;32220;49.808;9.968;2022-08-30T14:37:24;2.78;;;2.58;;
46505;SDS011;32220;49.808;9.968;2022-08-30T14:39:52;2.00;;;1.90;;
46505;SDS011;32220;49.808;9.968;2022-08-30T14:42:20;3.05;;;2.10;;
46505;SDS011;32220;49.808;9.968;2022-08-30T14:44:47;2.35;;;2.25;;
46505;SDS011;32220;49.808;9.968;2022-08-30T14:47:15;2.00;;;1.90;;
46505;SDS011;32220;49.808;9.968;2022-08-30T14:49:43;2.45;;;2.15;;
46505;SDS011;32220;49.808;9.968;2022-08-30T14:52:10;2.40;;;2.20;;
46505;SDS011;32220;49.808;9.968;2022-08-30T14:54:40;2.37;;;2.17;;
46505;SDS011;32220;49.808;9.968;2022-08-30T14:57:07;2.07;;;1.90;;
46505;SDS011;32220;49.808;9.968;2022-08-30T14:59:35;2.30;;;2.10;;
46505;SDS011;32220;49.808;9.968;2022-08-30T15:02:03;2.40;;;2.20;;
46505;SDS011;32220;49.808;9.968;2022-08-30T15:04:31;1.97;;;1.87;;
46505;SDS011;32220;49.808;9.968;2022-08-30T15:06:58;2.40;;;2.20;;
46505;SDS011;32220;49.808;9.968;2022-08-30T15:09:26;2.60;;;2.30;;
46505;SDS011;32220;49.808;9.968;2022-08-30T15:11:56;2.67;;;2.20;;
46505;SDS011;32220;49.808;9.968;2022-08-30T15:14:26;3.67;;;2.00;;
46505;SDS011;32220;49.808;9.968;2022-08-30T15:16:56;2.37;;;2.13;;
46505;SDS011;32220;49.808;9.968;2022-08-30T15:19:25;3.30;;;2.13;;
46505;SDS011;32220;49.808;9.968;2022-08-30T15:21:53;2.33;;;1.93;;
46505;SDS011;32220;49.808;9.968;2022-08-30T15:24:21;2.53;;;2.10;;
46505;SDS011;32220;49.808;9.968;2022-08-30T15:26:50;2.20;;;2.00;;
46505;SDS011;32220;49.808;9.968;2022-08-30T15:29:19;2.47;;;2.27;;